Time,TemperatureF,DewpointF,PressureIn,WindDirection,WindDirectionDegrees,WindSpeedMPH,WindSpeedGustMPH,Humidity,HourlyPrecipIn,Conditions,Clouds,dailyrainin,SoftwareType,DateUTC
2013-03-29 00:03:00,58.0,47.0,30.17,SE,125,1.0,4.0,67,0.00,,,0.00,,2013-03-29 05:03:00,
2013-03-29 00:12:00,58.0,47.0,30.17,SE,125,1.0,4.0,67,0.00,,,0.00,,2013-03-29 05:12:00,
2013-03-29 00:23:00,58.0,47.0,30.16,SE,141,3.0,7.0,67,0.00,,,0.00,,2013-03-29 05:23:00,
2013-03-29 00:33:00,57.0,46.0,30.16,SE,129,1.0,3.0,67,0.00,,,0.00,,2013-03-29 05:33:00,
2013-03-29 00:43:00,57.0,46.0,30.16,SE,129,1.0,3.0,67,0.00,,,0.00,,2013-03-29 05:43:00,
2013-03-29 00:52:00,57.0,47.0,30.16,SSE,157,0.0,1.0,68,0.00,,,0.00,,2013-03-29 05:52:00,
2013-03-29 01:02:00,56.0,47.0,30.16,SSE,156,0.0,0.0,71,0.00,,,0.00,,2013-03-29 06:02:00,
2013-03-29 01:12:00,56.0,47.0,30.16,SSE,156,0.0,0.0,71,0.00,,,0.00,,2013-03-29 06:12:00,
2013-03-29 01:23:00,55.0,46.0,30.16,SSE,156,0.0,0.0,72,0.00,,,0.00,,2013-03-29 06:23:00,
2013-03-29 01:32:00,54.0,46.0,30.16,SSE,158,0.0,0.0,74,0.00,,,0.00,,2013-03-29 06:32:00,
2013-03-29 01:42:00,54.0,46.0,30.16,SSE,158,0.0,0.0,74,0.00,,,0.00,,2013-03-29 06:42:00,
2013-03-29 01:52:00,52.0,45.0,30.15,SSE,156,0.0,0.0,78,0.00,,,0.00,,2013-03-29 06:52:00,
2013-03-29 02:03:00,51.0,45.0,30.15,SSE,157,0.0,0.0,79,0.00,,,0.00,,2013-03-29 07:03:00,
2013-03-29 02:12:00,51.0,45.0,30.15,SSE,157,0.0,0.0,79,0.00,,,0.00,,2013-03-29 07:12:00,
2013-03-29 02:22:00,50.0,45.0,30.15,SSE,156,0.0,0.0,82,0.00,,,0.00,,2013-03-29 07:22:00,
2013-03-29 02:32:00,50.0,45.0,30.14,SSE,156,0.0,0.0,83,0.00,,,0.00,,2013-03-29 07:32:00,
2013-03-29 02:42:00,50.0,45.0,30.14,SSE,156,0.0,0.0,83,0.00,,,0.00,,2013-03-29 07:42:00,
2013-03-29 02:52:00,50.0,45.0,30.14,SSE,157,0.0,0.0,82,0.00,,,0.00,,2013-03-29 07:52:00,
2013-03-29 03:02:00,49.0,44.0,30.14,SSE,156,0.0,0.0,84,0.00,,,0.00,,2013-03-29 08:02:00,
2013-03-29 03:12:00,49.0,44.0,30.14,SSE,156,0.0,0.0,84,0.00,,,0.00,,2013-03-29 08:12:00,
2013-03-29 03:22:00,49.0,45.0,30.14,SSE,157,0.0,1.0,86,0.00,,,0.00,,2013-03-29 08:22:00,
2013-03-29 03:32:00,48.0,44.0,30.14,SSE,156,0.0,0.0,85,0.00,,,0.00,,2013-03-29 08:32:00,
2013-03-29 03:42:00,48.0,44.0,30.14,SSE,156,0.0,0.0,85,0.00,,,0.00,,2013-03-29 08:42:00,
2013-03-29 03:52:00,47.0,43.0,30.14,SSE,156,0.0,0.0,86,0.00,,,0.00,,2013-03-29 08:52:00,
2013-03-29 04:02:00,48.0,44.0,30.14,SSE,156,0.0,1.0,87,0.00,,,0.00,,2013-03-29 09:02:00,
2013-03-29 04:13:00,48.0,44.0,30.14,SSE,156,0.0,1.0,87,0.00,,,0.00,,2013-03-29 09:13:00,
2013-03-29 04:22:00,48.0,44.0,30.13,SSE,156,0.0,0.0,85,0.00,,,0.00,,2013-03-29 09:22:00,
2013-03-29 04:33:00,48.0,43.0,30.13,ESE,117,0.0,0.0,84,0.00,,,0.00,,2013-03-29 09:33:00,
2013-03-29 04:42:00,48.0,43.0,30.13,ESE,117,0.0,0.0,84,0.00,,,0.00,,2013-03-29 09:42:00,
2013-03-29 04:52:00,48.0,44.0,30.12,SSE,152,0.0,0.0,86,0.00,,,0.00,,2013-03-29 09:52:00,
2013-03-29 05:03:00,48.0,44.0,30.12,SSE,152,0.0,0.0,87,0.00,,,0.00,,2013-03-29 10:03:00,
2013-03-29 05:12:00,48.0,44.0,30.12,SSE,152,0.0,0.0,87,0.00,,,0.00,,2013-03-29 10:12:00,
2013-03-29 05:22:00,48.0,44.0,30.12,SSE,153,0.0,0.0,85,0.00,,,0.00,,2013-03-29 10:22:00,
2013-03-29 05:33:00,48.0,44.0,30.11,SSE,153,0.0,1.0,85,0.00,,,0.00,,2013-03-29 10:33:00,
2013-03-29 05:42:00,48.0,44.0,30.11,SSE,153,0.0,1.0,85,0.00,,,0.00,,2013-03-29 10:42:00,
2013-03-29 05:52:00,49.0,45.0,30.11,North,3,0.0,1.0,85,0.00,,,0.00,,2013-03-29 10:52:00,
2013-03-29 06:03:00,50.0,45.0,30.11,North,3,0.0,1.0,83,0.00,,,0.00,,2013-03-29 11:03:00,
2013-03-29 06:12:00,50.0,45.0,30.11,North,3,0.0,1.0,83,0.00,,,0.00,,2013-03-29 11:12:00,
2013-03-29 06:23:00,49.0,45.0,30.11,NW,304,0.0,1.0,87,0.00,,,0.00,,2013-03-29 11:23:00,
2013-03-29 06:32:00,49.0,45.0,30.12,NE,48,0.0,1.0,85,0.00,,,0.00,,2013-03-29 11:32:00,
2013-03-29 06:42:00,49.0,45.0,30.12,NE,48,0.0,1.0,85,0.00,,,0.00,,2013-03-29 11:42:00,
2013-03-29 06:52:00,50.0,45.0,30.14,North,11,8.0,16.0,83,0.00,,,0.00,,2013-03-29 11:52:00,
2013-03-29 07:03:00,50.0,45.0,30.16,NNW,329,2.0,15.0,82,0.00,,,0.00,,2013-03-29 12:03:00,
2013-03-29 07:12:00,50.0,45.0,30.16,NNW,329,2.0,15.0,82,0.00,,,0.00,,2013-03-29 12:12:00,
2013-03-29 07:22:00,50.0,46.0,30.17,NNW,333,3.0,8.0,87,0.02,,,0.02,,2013-03-29 12:22:00,
2013-03-29 07:32:00,49.0,46.0,30.17,ENE,66,1.0,4.0,90,0.03,,,0.03,,2013-03-29 12:32:00,
2013-03-29 07:42:00,49.0,46.0,30.17,ENE,66,1.0,4.0,90,0.03,,,0.03,,2013-03-29 12:42:00,
2013-03-29 07:52:00,49.0,46.0,30.17,NNE,18,0.0,2.0,91,0.03,,,0.03,,2013-03-29 12:52:00,
2013-03-29 08:03:00,49.0,47.0,30.18,North,352,0.0,1.0,92,0.03,,,0.03,,2013-03-29 13:03:00,
2013-03-29 08:12:00,49.0,47.0,30.18,North,352,0.0,1.0,92,0.03,,,0.03,,2013-03-29 13:12:00,
2013-03-29 08:22:00,49.0,47.0,30.18,ENE,74,1.0,3.0,93,0.01,,,0.03,,2013-03-29 13:22:00,
2013-03-29 08:32:00,50.0,48.0,30.18,ESE,121,0.0,1.0,93,0.00,,,0.03,,2013-03-29 13:32:00,
2013-03-29 08:42:00,50.0,48.0,30.18,ESE,121,0.0,1.0,93,0.00,,,0.03,,2013-03-29 13:42:00,
2013-03-29 08:52:00,50.0,48.0,30.18,East,79,0.0,1.0,93,0.01,,,0.04,,2013-03-29 13:52:00,
2013-03-29 09:03:00,50.0,48.0,30.18,SE,134,0.0,2.0,92,0.01,,,0.04,,2013-03-29 14:03:00,
2013-03-29 09:12:00,50.0,48.0,30.18,SE,134,0.0,2.0,92,0.01,,,0.04,,2013-03-29 14:12:00,
2013-03-29 09:22:00,50.0,48.0,30.19,East,86,0.0,1.0,92,0.02,,,0.05,,2013-03-29 14:22:00,
2013-03-29 09:32:00,50.0,48.0,30.19,NE,55,0.0,0.0,94,0.03,,,0.06,,2013-03-29 14:32:00,
2013-03-29 09:42:00,50.0,48.0,30.19,NE,55,0.0,0.0,94,0.03,,,0.06,,2013-03-29 14:42:00,
2013-03-29 09:52:00,50.0,48.0,30.19,NE,56,0.0,3.0,94,0.03,,,0.07,,2013-03-29 14:52:00,
2013-03-29 10:02:00,51.0,49.0,30.19,ESE,120,0.0,2.0,93,0.03,,,0.07,,2013-03-29 15:02:00,
2013-03-29 10:12:00,51.0,49.0,30.19,ESE,120,0.0,2.0,93,0.03,,,0.07,,2013-03-29 15:12:00,
2013-03-29 10:22:00,52.0,49.0,30.19,SE,135,3.0,5.0,89,0.02,,,0.07,,2013-03-29 15:22:00,
2013-03-29 10:33:00,53.0,50.0,30.19,SSE,155,3.0,6.0,88,0.01,,,0.07,,2013-03-29 15:33:00,
2013-03-29 10:43:00,53.0,50.0,30.19,SSE,155,3.0,6.0,88,0.01,,,0.07,,2013-03-29 15:43:00,
2013-03-29 10:52:00,53.0,50.0,30.19,SSE,155,3.0,6.0,88,0.01,,,0.07,,2013-03-29 15:52:00,
2013-03-29 11:03:00,53.0,49.0,30.20,ESE,117,2.0,5.0,87,0.00,,,0.07,,2013-03-29 16:03:00,
2013-03-29 11:13:00,53.0,49.0,30.20,ESE,117,2.0,5.0,87,0.00,,,0.07,,2013-03-29 16:13:00,
2013-03-29 11:23:00,53.0,49.0,30.19,SE,130,3.0,8.0,87,0.00,,,0.07,,2013-03-29 16:23:00,
2013-03-29 11:32:00,53.0,50.0,30.19,SE,126,0.0,5.0,89,0.00,,,0.07,,2013-03-29 16:32:00,
2013-03-29 11:42:00,53.0,50.0,30.19,SE,126,0.0,5.0,89,0.00,,,0.07,,2013-03-29 16:42:00,
2013-03-29 11:52:00,52.0,49.0,30.19,SSE,153,4.0,9.0,89,0.00,,,0.07,,2013-03-29 16:52:00,
2013-03-29 12:03:00,53.0,50.0,30.18,South,170,2.0,7.0,90,0.00,,,0.07,,2013-03-29 17:03:00,
2013-03-29 12:12:00,53.0,50.0,30.18,South,170,2.0,7.0,90,0.00,,,0.07,,2013-03-29 17:12:00,
2013-03-29 12:22:00,54.0,50.0,30.19,ESE,118,1.0,7.0,87,0.00,,,0.07,,2013-03-29 17:22:00,
2013-03-29 12:33:00,55.0,50.0,30.19,WNW,288,0.0,4.0,84,0.00,,,0.07,,2013-03-29 17:33:00,
2013-03-29 12:42:00,55.0,50.0,30.19,WNW,288,0.0,4.0,84,0.00,,,0.07,,2013-03-29 17:42:00,
2013-03-29 12:52:00,57.0,52.0,30.18,SSE,154,2.0,6.0,82,0.00,,,0.07,,2013-03-29 17:52:00,
2013-03-29 13:02:00,58.0,52.0,30.18,NNW,346,0.0,3.0,79,0.00,,,0.07,,2013-03-29 18:02:00,
2013-03-29 13:12:00,58.0,52.0,30.18,NNW,346,0.0,3.0,79,0.00,,,0.07,,2013-03-29 18:12:00,
2013-03-29 13:22:00,60.0,52.0,30.17,SE,129,1.0,5.0,76,0.00,,,0.07,,2013-03-29 18:22:00,
2013-03-29 13:32:00,60.0,51.0,30.16,SE,129,4.0,8.0,73,0.00,,,0.07,,2013-03-29 18:32:00,
2013-03-29 13:42:00,60.0,51.0,30.16,SE,129,4.0,8.0,73,0.00,,,0.07,,2013-03-29 18:42:00,
2013-03-29 13:52:00,60.0,51.0,30.16,East,80,4.0,6.0,72,0.00,,,0.07,,2013-03-29 18:52:00,
2013-03-29 14:02:00,62.0,51.0,30.15,SE,145,2.0,10.0,68,0.00,,,0.07,,2013-03-29 19:02:00,
2013-03-29 14:12:00,62.0,51.0,30.15,SSW,200,2.0,6.0,66,0.00,,,0.07,,2013-03-29 19:12:00,
2013-03-29 14:23:00,62.0,51.0,30.15,SSW,200,2.0,6.0,66,0.00,,,0.07,,2013-03-29 19:23:00,
2013-03-29 14:32:00,63.0,51.0,30.15,NNE,13,2.0,7.0,65,0.00,,,0.07,,2013-03-29 19:32:00,
2013-03-29 14:42:00,63.0,51.0,30.15,NNE,13,2.0,7.0,65,0.00,,,0.07,,2013-03-29 19:42:00,
2013-03-29 14:52:00,64.0,51.0,30.14,East,94,1.0,6.0,63,0.00,,,0.07,,2013-03-29 19:52:00,
2013-03-29 15:02:00,65.0,51.0,30.13,East,84,1.0,8.0,61,0.00,,,0.07,,2013-03-29 20:02:00,
2013-03-29 15:12:00,65.0,51.0,30.13,East,84,1.0,8.0,61,0.00,,,0.07,,2013-03-29 20:12:00,
2013-03-29 15:22:00,65.0,51.0,30.13,ESE,115,2.0,8.0,61,0.00,,,0.07,,2013-03-29 20:22:00,
2013-03-29 15:33:00,65.0,52.0,30.13,NNE,22,2.0,7.0,62,0.00,,,0.07,,2013-03-29 20:33:00,
2013-03-29 15:42:00,65.0,52.0,30.13,NNE,22,2.0,7.0,62,0.00,,,0.07,,2013-03-29 20:42:00,
2013-03-29 15:52:00,66.0,51.0,30.13,SW,217,4.0,6.0,58,0.00,,,0.07,,2013-03-29 20:52:00,
2013-03-29 16:02:00,68.0,52.0,30.13,NE,41,4.0,9.0,56,0.00,,,0.07,,2013-03-29 21:02:00,
2013-03-29 16:12:00,68.0,52.0,30.13,NE,41,4.0,9.0,56,0.00,,,0.07,,2013-03-29 21:12:00,
2013-03-29 16:22:00,66.0,52.0,30.12,ESE,106,3.0,8.0,60,0.00,,,0.07,,2013-03-29 21:22:00,
2013-03-29 16:33:00,66.0,50.0,30.12,NNE,32,3.0,6.0,56,0.00,,,0.07,,2013-03-29 21:33:00,
2013-03-29 16:42:00,66.0,50.0,30.12,NNE,32,3.0,6.0,56,0.00,,,0.07,,2013-03-29 21:42:00,
2013-03-29 16:53:00,65.0,49.0,30.11,ENE,64,0.0,5.0,57,0.00,,,0.07,,2013-03-29 21:53:00,
2013-03-29 17:03:00,66.0,50.0,30.11,SSE,158,5.0,8.0,56,0.00,,,0.07,,2013-03-29 22:03:00,
2013-03-29 17:12:00,66.0,50.0,30.11,SSE,158,5.0,8.0,56,0.00,,,0.07,,2013-03-29 22:12:00,
2013-03-29 17:22:00,67.0,50.0,30.11,ESE,111,2.0,7.0,54,0.00,,,0.07,,2013-03-29 22:22:00,
2013-03-29 17:33:00,67.0,50.0,30.11,ESE,117,2.0,7.0,54,0.00,,,0.07,,2013-03-29 22:33:00,
2013-03-29 17:42:00,67.0,50.0,30.11,ESE,117,2.0,7.0,54,0.00,,,0.07,,2013-03-29 22:42:00,
2013-03-29 17:52:00,67.0,50.0,30.11,SE,136,4.0,7.0,54,0.00,,,0.07,,2013-03-29 22:52:00,
2013-03-29 18:02:00,66.0,50.0,30.11,East,90,4.0,8.0,56,0.00,,,0.07,,2013-03-29 23:02:00,
2013-03-29 18:12:00,66.0,50.0,30.11,East,90,4.0,8.0,56,0.00,,,0.07,,2013-03-29 23:12:00,
2013-03-29 18:22:00,65.0,49.0,30.11,SE,124,2.0,6.0,57,0.00,,,0.07,,2013-03-29 23:22:00,
2013-03-29 18:32:00,65.0,50.0,30.12,ESE,104,2.0,6.0,59,0.00,,,0.07,,2013-03-29 23:32:00,
2013-03-29 18:42:00,65.0,50.0,30.12,ESE,104,2.0,6.0,59,0.00,,,0.07,,2013-03-29 23:42:00,
2013-03-29 18:52:00,65.0,50.0,30.12,SE,133,1.0,4.0,59,0.00,,,0.07,,2013-03-29 23:52:00,
2013-03-29 19:03:00,65.0,50.0,30.11,SE,129,1.0,5.0,59,0.00,,,0.07,,2013-03-30 00:03:00,
2013-03-29 19:12:00,65.0,50.0,30.11,SE,129,1.0,5.0,59,0.00,,,0.07,,2013-03-30 00:12:00,
2013-03-29 19:22:00,65.0,51.0,30.12,SE,124,2.0,5.0,60,0.00,,,0.07,,2013-03-30 00:22:00,
2013-03-29 19:32:00,64.0,50.0,30.12,ESE,120,2.0,7.0,61,0.00,,,0.07,,2013-03-30 00:32:00,
2013-03-29 19:42:00,64.0,50.0,30.12,ESE,120,2.0,7.0,61,0.00,,,0.07,,2013-03-30 00:42:00,
2013-03-29 19:52:00,63.0,50.0,30.11,ESE,105,1.0,4.0,63,0.00,,,0.07,,2013-03-30 00:52:00,
2013-03-29 20:02:00,62.0,50.0,30.12,ESE,120,2.0,5.0,64,0.00,,,0.07,,2013-03-30 01:02:00,
2013-03-29 20:12:00,62.0,50.0,30.12,ESE,120,2.0,5.0,64,0.00,,,0.07,,2013-03-30 01:12:00,
2013-03-29 20:22:00,61.0,50.0,30.12,ESE,111,2.0,3.0,66,0.00,,,0.07,,2013-03-30 01:22:00,
2013-03-29 20:32:00,60.0,49.0,30.12,East,89,2.0,4.0,67,0.00,,,0.07,,2013-03-30 01:32:00,
2013-03-29 20:43:00,60.0,49.0,30.12,East,89,2.0,4.0,67,0.00,,,0.07,,2013-03-30 01:43:00,
2013-03-29 20:52:00,60.0,49.0,30.12,East,84,2.0,4.0,68,0.00,,,0.07,,2013-03-30 01:52:00,
2013-03-29 21:02:00,59.0,49.0,30.13,ESE,111,1.0,4.0,69,0.00,,,0.07,,2013-03-30 02:02:00,
2013-03-29 21:12:00,59.0,49.0,30.13,ESE,111,1.0,4.0,69,0.00,,,0.07,,2013-03-30 02:12:00,
2013-03-29 21:22:00,59.0,49.0,30.13,ESE,110,1.0,4.0,69,0.00,,,0.07,,2013-03-30 02:22:00,
2013-03-29 21:32:00,58.0,48.0,30.13,ESE,110,1.0,3.0,70,0.00,,,0.07,,2013-03-30 02:32:00,
2013-03-29 21:42:00,58.0,48.0,30.13,ESE,110,1.0,3.0,70,0.00,,,0.07,,2013-03-30 02:42:00,
2013-03-29 21:52:00,58.0,49.0,30.14,SE,132,2.0,6.0,71,0.00,,,0.07,,2013-03-30 02:52:00,
2013-03-29 22:02:00,58.0,49.0,30.14,ESE,116,1.0,4.0,72,0.00,,,0.07,,2013-03-30 03:02:00,
2013-03-29 22:12:00,57.0,49.0,30.14,ESE,113,1.0,6.0,74,0.00,,,0.07,,2013-03-30 03:12:00,
2013-03-29 22:22:00,57.0,49.0,30.14,ESE,113,1.0,6.0,74,0.00,,,0.07,,2013-03-30 03:22:00,
2013-03-29 22:33:00,57.0,50.0,30.14,East,86,1.0,6.0,76,0.00,,,0.07,,2013-03-30 03:33:00,
2013-03-29 22:43:00,57.0,50.0,30.14,East,86,1.0,6.0,76,0.00,,,0.07,,2013-03-30 03:43:00,
2013-03-29 22:52:00,56.0,49.0,30.15,East,99,0.0,4.0,77,0.00,,,0.07,,2013-03-30 03:52:00,
2013-03-29 23:02:00,55.0,49.0,30.15,ESE,111,1.0,2.0,79,0.00,,,0.07,,2013-03-30 04:02:00,
2013-03-29 23:12:00,55.0,49.0,30.15,ESE,111,1.0,2.0,79,0.00,,,0.07,,2013-03-30 04:12:00,
2013-03-29 23:23:00,55.0,49.0,30.15,ESE,111,1.0,2.0,79,0.00,,,0.07,,2013-03-30 04:23:00,
2013-03-29 23:32:00,54.0,49.0,30.14,ESE,119,2.0,8.0,83,0.00,,,0.07,,2013-03-30 04:32:00,
2013-03-29 23:43:00,54.0,49.0,30.14,ESE,119,2.0,8.0,83,0.00,,,0.07,,2013-03-30 04:43:00,
2013-03-29 23:53:00,54.0,49.0,30.14,ESE,102,2.0,4.0,84,0.00,,,0.07,,2013-03-30 04:53:00,